createdAt,value
2023-10-02T09:45:50.945Z,99.90
2023-10-02T10:07:37.070Z,99.90
2023-10-02T10:44:07.937Z,96.50
2023-10-02T11:12:19.042Z,94.50
2023-10-02T11:14:07.371Z,94.40
2023-10-02T11:22:09.908Z,93.90
2023-10-02T11:30:46.282Z,93.20
2023-10-02T12:26:32.985Z,87.90
2023-10-02T12:27:57.153Z,88.40
2023-10-02T12:29:21.298Z,88.40
2023-10-02T12:30:48.798Z,89.00
2023-10-02T12:32:25.217Z,90.20
2023-10-02T12:34:11.358Z,90.60
2023-10-02T12:35:40.931Z,90.60
2023-10-02T12:41:29.763Z,90.00
2023-10-02T12:43:17.294Z,90.00
2023-10-02T12:45:13.432Z,88.40
2023-10-02T12:46:55.644Z,88.00
2023-10-02T12:48:33.451Z,92.40
2023-10-02T12:50:09.247Z,91.50
2023-10-02T12:51:49.578Z,90.00
2023-10-02T12:53:34.736Z,89.40
2023-10-02T12:57:14.629Z,89.40
2023-10-02T12:58:42.813Z,88.30
2023-10-02T13:00:16.149Z,88.30
2023-10-02T13:01:53.895Z,86.20
2023-10-02T13:03:21.225Z,90.90
2023-10-02T13:04:57.111Z,90.20
2023-10-02T13:06:25.506Z,90.20
2023-10-02T13:08:04.640Z,88.40
2023-10-02T13:09:39.722Z,87.10
2023-10-02T13:11:04.881Z,86.10
2023-10-02T13:12:29.688Z,85.30
2023-10-02T13:13:57.749Z,85.20
2023-10-02T13:18:16.258Z,84.10
2023-10-02T13:20:21.815Z,83.70
2023-10-02T13:22:10.932Z,83.70
2023-10-02T13:23:38.331Z,83.50
2023-10-02T13:25:11.803Z,83.90
2023-10-02T13:26:43.918Z,83.60
2023-10-02T13:28:09.167Z,84.40
2023-10-02T13:29:43.013Z,85.00
2023-10-02T13:31:15.170Z,84.90
2023-10-02T13:33:53.140Z,85.50
2023-10-02T13:35:16.852Z,85.20
2023-10-02T13:36:40.423Z,84.90
2023-10-02T13:38:03.231Z,85.10
2023-10-02T13:39:31.582Z,85.50
2023-10-02T13:40:57.786Z,85.80
2023-10-02T13:42:25.008Z,86.00
2023-10-02T13:43:55.253Z,86.30
2023-10-02T13:45:21.791Z,86.50
2023-10-02T13:46:49.414Z,86.80
2023-10-02T13:48:19.206Z,86.90
2023-10-02T13:49:45.818Z,87.10
2023-10-02T13:51:09.955Z,87.00
2023-10-02T13:52:38.339Z,86.70
2023-10-02T13:54:03.061Z,86.70
2023-10-02T13:55:37.432Z,87.30
2023-10-02T13:57:05.053Z,87.10
2023-10-02T13:58:33.934Z,87.30
2023-10-02T13:59:58.703Z,87.90
2023-10-02T14:01:23.092Z,88.20
2023-10-02T14:03:02.028Z,87.50
2023-10-02T14:04:31.813Z,87.30
2023-10-02T14:05:57.339Z,86.70
2023-10-02T14:07:27.997Z,86.60
2023-10-02T14:08:54.017Z,86.80
2023-10-02T14:10:20.049Z,87.60
2023-10-02T14:12:04.946Z,87.50
2023-10-02T14:13:30.242Z,87.20
2023-10-02T14:14:55.478Z,87.80
2023-10-02T14:16:21.361Z,87.90
2023-10-02T14:17:56.081Z,87.60
2023-10-02T14:19:20.089Z,88.00
2023-10-02T14:20:48.349Z,88.60
2023-10-02T14:22:22.888Z,88.70
2023-10-02T14:23:50.042Z,88.20
2023-10-02T14:25:19.558Z,88.70
2023-10-02T14:26:44.611Z,89.10
2023-10-02T14:28:10.497Z,89.40
2023-10-02T14:29:36.559Z,89.90
2023-10-02T14:31:01.357Z,90.00
2023-10-02T14:32:25.774Z,89.80
2023-10-02T14:33:51.427Z,90.00
2023-10-02T14:35:16.175Z,89.70
2023-10-02T14:36:41.158Z,90.20
2023-10-02T14:38:05.320Z,90.10
2023-10-02T14:39:38.202Z,90.50
2023-10-02T14:41:03.644Z,90.60
2023-10-02T14:42:34.354Z,90.60
2023-10-02T14:44:00.443Z,90.70
2023-10-02T14:45:29.940Z,90.80
2023-10-02T14:46:54.918Z,91.10
2023-10-02T14:49:48.551Z,91.40
2023-10-02T14:51:13.912Z,91.40
2023-10-02T14:52:41.682Z,91.50
2023-10-02T14:54:05.565Z,91.70
2023-10-02T14:55:35.986Z,92.10
2023-10-02T14:57:01.416Z,92.10
2023-10-02T14:58:27.902Z,92.30
2023-10-02T14:59:55.878Z,92.40
2023-10-02T15:01:26.375Z,92.30
2023-10-02T15:02:55.761Z,92.20
2023-10-02T15:04:19.615Z,92.50
2023-10-02T15:05:45.585Z,92.70
2023-10-02T15:07:16.943Z,93.10
2023-10-02T15:08:42.958Z,92.90
2023-10-02T15:10:56.347Z,93.10
2023-10-02T15:12:52.569Z,93.30
2023-10-02T15:18:25.826Z,94.10
2023-10-02T15:20:43.908Z,94.30
2023-10-02T15:26:23.213Z,94.80
2023-10-02T15:28:02.965Z,94.90
2023-10-02T15:30:01.302Z,95.00
2023-10-02T15:31:24.985Z,95.30
2023-10-02T15:32:49.004Z,95.30
2023-10-02T15:34:42.574Z,95.60
2023-10-02T15:36:05.862Z,95.70
2023-10-02T15:37:39.140Z,95.90
2023-10-02T15:39:05.927Z,96.10
2023-10-02T15:40:31.655Z,96.10
2023-10-02T15:41:55.795Z,96.20
2023-10-02T15:43:19.655Z,96.50
2023-10-02T15:44:52.168Z,96.60
2023-10-02T15:46:19.186Z,96.80
2023-10-02T15:47:48.070Z,96.90
2023-10-02T15:49:18.078Z,97.10
2023-10-02T15:50:57.510Z,97.20
2023-10-02T15:52:24.268Z,97.30
2023-10-02T15:53:52.755Z,97.40
2023-10-02T15:55:36.953Z,97.60
2023-10-02T15:57:09.921Z,98.20
2023-10-02T15:58:44.691Z,98.10
2023-10-02T16:00:17.688Z,98.20
2023-10-02T16:01:52.409Z,98.20
2023-10-02T16:03:18.825Z,98.30
2023-10-02T16:04:49.831Z,98.40
2023-10-02T16:06:15.527Z,98.40
2023-10-02T16:07:46.413Z,98.50
2023-10-02T16:09:13.343Z,98.70
2023-10-02T16:10:48.423Z,98.90
2023-10-02T16:12:21.983Z,99.10
2023-10-02T16:13:53.264Z,99.10
2023-10-02T16:15:21.172Z,99.20
2023-10-02T16:16:45.888Z,99.30
2023-10-02T16:18:13.226Z,99.40
2023-10-02T16:19:38.854Z,99.80
2023-10-02T16:21:10.588Z,99.80
2023-10-02T16:23:41.735Z,99.90
2023-10-02T16:25:06.733Z,99.90
2023-10-02T16:26:34.756Z,99.90
2023-10-02T16:28:00.458Z,99.90
2023-10-02T16:29:25.993Z,99.90
